Time;durP1;ratioP1;P1;durP2;ratioP2;P2;SDS_P1;SDS_P2;PMS_P1;PMS_P2;Temp;Humidity;BMP_temperature;BMP_pressure;BME280_temperature;BME280_humidity;BME280_pressure;Samples;Min_cycle;Max_cycle;Signal;HPM_P1;HPM_P2
2022/06/28 00:01:41;;;;;;;3.30;3.00;;;;;;;22.61;61.99;99239.00;6962203;28;20227;-82
2022/06/28 00:05:03;;;;;;;2.83;2.63;;;;;;;22.85;61.70;99256.63;6977800;28;20234;-81
2022/06/28 00:08:25;;;;;;;4.30;4.00;;;;;;;22.45;62.50;99262.03;6978371;28;20240;-82
2022/06/28 00:11:47;;;;;;;3.33;2.90;;;;;;;22.27;63.23;99251.50;6978981;28;20586;-82
2022/06/28 00:18:52;;;;;;;4.20;2.93;;;;;;;21.97;63.42;99240.38;6980374;28;20182;-81
2022/06/28 00:22:13;;;;;;;3.67;3.20;;;;;;;22.42;62.73;99243.31;6981084;28;20288;-81
2022/06/28 00:25:35;;;;;;;3.50;3.20;;;;;;;22.51;62.26;99261.78;6980371;28;20227;-81
2022/06/28 00:28:57;;;;;;;5.60;3.43;;;;;;;22.36;62.32;99241.66;6979712;28;20211;-81
2022/06/28 00:32:19;;;;;;;4.27;3.27;;;;;;;22.02;62.98;99270.63;6980142;28;20752;-81
2022/06/28 00:35:42;;;;;;;4.07;3.63;;;;;;;22.23;62.63;99278.69;6979457;28;20203;-81
2022/06/28 00:39:04;;;;;;;4.23;3.00;;;;;;;22.18;62.41;99250.38;6979134;28;20206;-81
2022/06/28 00:42:25;;;;;;;4.87;3.27;;;;;;;22.05;62.69;99264.59;6979481;28;20222;-81
2022/06/28 00:45:47;;;;;;;6.33;3.30;;;;;;;22.06;63.31;99266.25;6979414;28;20273;-81
2022/06/28 00:49:11;;;;;;;5.07;3.30;;;;;;;22.28;62.99;99281.47;6978953;28;20214;-81
2022/06/28 00:52:32;;;;;;;5.00;3.17;;;;;;;22.47;62.51;99284.56;6978999;28;20218;-82
2022/06/28 00:55:54;;;;;;;4.33;2.80;;;;;;;22.40;61.72;99257.31;6977438;28;20210;-81
2022/06/28 00:59:16;;;;;;;5.37;3.47;;;;;;;22.06;62.35;99238.78;6979060;28;20195;-81
2022/06/28 01:02:37;;;;;;;4.47;3.40;;;;;;;22.17;63.02;99278.91;6978526;28;20313;-81
2022/06/28 01:06:00;;;;;;;6.13;3.53;;;;;;;22.37;62.08;99292.75;6978471;28;20311;-81
2022/06/28 01:09:22;;;;;;;3.30;3.00;;;;;;;22.30;62.11;99279.25;6973152;28;20280;-81
2022/06/28 01:12:44;;;;;;;3.67;3.10;;;;;;;22.49;60.81;99283.19;6978876;28;20608;-81
2022/06/28 01:16:07;;;;;;;3.40;3.20;;;;;;;22.34;61.25;99293.28;6978285;28;20214;-81
2022/06/28 01:19:28;;;;;;;5.43;3.40;;;;;;;21.72;61.74;99204.59;6978962;28;20295;-81
2022/06/28 01:22:51;;;;;;;3.70;3.10;;;;;;;22.24;61.34;99268.53;6980266;28;20280;-81
2022/06/28 01:26:14;;;;;;;7.17;3.70;;;;;;;22.12;62.09;99287.97;6980861;28;20230;-82
2022/06/28 01:29:35;;;;;;;5.17;4.40;;;;;;;21.84;64.00;99269.16;6979919;28;20667;-82
2022/06/28 01:32:57;;;;;;;4.83;3.83;;;;;;;22.07;63.71;99263.22;6978387;28;20776;-82
2022/06/28 01:36:19;;;;;;;5.70;3.80;;;;;;;22.16;62.93;99278.09;6978720;28;20215;-81
2022/06/28 01:39:42;;;;;;;4.53;3.47;;;;;;;22.10;63.63;99283.84;6997837;28;20216;-81
2022/06/28 01:43:04;;;;;;;4.53;4.13;;;;;;;22.02;63.67;99279.66;6994406;28;20241;-81
2022/06/28 01:46:26;;;;;;;4.37;3.80;;;;;;;22.11;62.59;99283.56;6981964;28;20698;-81
2022/06/28 01:49:48;;;;;;;5.20;3.63;;;;;;;22.29;62.74;99287.75;6978518;28;20217;-81
2022/06/28 01:53:10;;;;;;;4.00;3.57;;;;;;;22.11;62.68;99275.34;6978577;28;20230;-82
2022/06/28 01:56:33;;;;;;;4.27;3.87;;;;;;;22.22;62.75;99274.28;6976927;28;20256;-81
2022/06/28 01:59:54;;;;;;;4.87;3.63;;;;;;;22.27;62.25;99296.28;6978063;28;20191;-81
2022/06/28 02:03:16;;;;;;;3.50;2.90;;;;;;;22.24;62.14;99288.56;6977981;28;20258;-81
2022/06/28 02:06:38;;;;;;;3.53;3.20;;;;;;;22.06;62.38;99283.56;6978289;28;20284;-82
2022/06/28 02:09:59;;;;;;;3.70;3.20;;;;;;;22.09;62.66;99283.03;6977147;28;20453;-81
2022/06/28 02:13:22;;;;;;;3.90;3.60;;;;;;;21.98;61.89;99267.59;6977731;28;20222;-81
2022/06/28 02:16:44;;;;;;;6.23;3.97;;;;;;;22.08;62.04;99284.09;6978000;28;20562;-81
2022/06/28 02:20:06;;;;;;;7.57;3.90;;;;;;;21.57;62.50;99249.22;6977340;28;20221;-81
2022/06/28 02:23:28;;;;;;;6.73;3.63;;;;;;;21.73;62.81;99272.91;6977833;28;20245;-82
2022/06/28 02:26:49;;;;;;;4.13;3.63;;;;;;;21.98;61.77;99277.75;6978389;28;20273;-82
2022/06/28 02:30:13;;;;;;;3.83;2.70;;;;;;;21.92;61.75;99290.63;6981424;28;20301;-82
2022/06/28 02:33:35;;;;;;;5.33;3.27;;;;;;;21.68;61.94;99289.38;6981873;28;20242;-81
2022/06/28 02:40:35;;;;;;;5.63;3.20;;;;;;;21.76;62.53;99285.28;7003260;28;20226;-78
2022/06/28 02:43:57;;;;;;;3.80;3.40;;;;;;;21.69;61.91;99287.44;6984425;28;20227;-81
2022/06/28 02:47:20;;;;;;;3.87;3.37;;;;;;;21.32;62.99;99294.84;6982720;28;20260;-80
2022/06/28 02:50:41;;;;;;;4.87;3.50;;;;;;;21.13;63.40;99320.16;6981855;28;20210;-81
2022/06/28 02:54:03;;;;;;;4.07;3.57;;;;;;;21.17;63.35;99299.38;6983329;28;20300;-81
2022/06/28 02:57:25;;;;;;;4.30;3.50;;;;;;;21.27;63.14;99287.41;6982085;28;20202;-80
2022/06/28 03:00:46;;;;;;;3.50;3.20;;;;;;;21.50;62.07;99316.38;6980051;28;20692;-82
2022/06/28 03:04:09;;;;;;;4.93;3.40;;;;;;;21.47;61.22;99320.47;6956037;28;20237;-81
2022/06/28 03:07:31;;;;;;;4.90;3.20;;;;;;;21.18;61.80;99297.19;6955582;28;20238;-81
2022/06/28 03:10:52;;;;;;;5.20;3.27;;;;;;;21.13;62.52;99288.91;6959557;28;20218;-81
2022/06/28 03:14:14;;;;;;;9.53;4.07;;;;;;;21.02;62.42;99294.56;6956074;28;20242;-82
2022/06/28 03:17:35;;;;;;;5.93;3.27;;;;;;;21.39;61.46;99304.50;6955020;28;20210;-82
2022/06/28 03:20:58;;;;;;;3.90;2.80;;;;;;;21.35;61.38;99310.75;6955338;28;20285;-81
2022/06/28 03:24:20;;;;;;;3.33;2.97;;;;;;;21.44;60.74;99309.19;6954830;28;20222;-81
2022/06/28 03:27:42;;;;;;;3.40;2.63;;;;;;;21.03;61.12;99282.53;6954178;28;20237;-82
2022/06/28 03:31:04;;;;;;;5.53;3.20;;;;;;;21.20;61.22;99324.34;6955551;28;20559;-81
2022/06/28 03:34:25;;;;;;;3.20;2.90;;;;;;;21.04;61.66;99281.44;6955731;28;20238;-81
2022/06/28 03:37:48;;;;;;;3.67;2.87;;;;;;;21.31;61.14;99302.22;6954689;28;20215;-81
2022/06/28 03:41:10;;;;;;;3.00;2.80;;;;;;;21.27;61.84;99316.75;6956354;28;20269;-82
2022/06/28 03:44:32;;;;;;;5.27;3.27;;;;;;;20.91;62.76;99313.91;6955727;28;20237;-82
2022/06/28 03:47:53;;;;;;;2.97;2.70;;;;;;;21.04;62.51;99302.56;6955681;28;20230;-82
2022/06/28 03:51:15;;;;;;;3.43;2.97;;;;;;;21.21;62.61;99320.53;6955949;28;20215;-80
2022/06/28 03:54:38;;;;;;;4.13;2.80;;;;;;;21.41;62.50;99329.75;6954581;28;20199;-81
2022/06/28 03:57:59;;;;;;;3.40;2.73;;;;;;;21.35;62.10;99330.81;6951171;28;20216;-81
2022/06/28 04:01:21;;;;;;;6.70;3.27;;;;;;;21.16;62.96;99334.19;6959682;28;20209;-80
2022/06/28 04:04:42;;;;;;;5.17;3.33;;;;;;;20.71;63.64;99264.34;6979764;28;20238;-80
2022/06/28 04:08:05;;;;;;;8.27;3.30;;;;;;;21.10;63.58;99331.69;6978708;28;20206;-80
2022/06/28 04:11:28;;;;;;;3.80;3.50;;;;;;;21.17;63.80;99326.81;6981549;28;20664;-81
2022/06/28 04:14:49;;;;;;;6.83;3.27;;;;;;;21.31;63.21;99323.38;6988255;28;20205;-81
2022/06/28 04:18:11;;;;;;;3.57;3.27;;;;;;;21.57;62.14;99304.09;6984153;28;20214;-80
2022/06/28 04:21:32;;;;;;;5.43;4.93;;;;;;;21.57;61.95;99281.31;6981843;28;20257;-81
2022/06/28 04:24:54;;;;;;;3.17;2.90;;;;;;;21.71;61.94;99321.78;6985315;28;20260;-79
2022/06/28 04:28:17;;;;;;;5.07;3.10;;;;;;;21.46;62.49;99291.38;6983110;28;20218;-80
2022/06/28 04:31:38;;;;;;;3.30;3.00;;;;;;;21.70;61.98;99306.41;6978582;28;20313;-79
2022/06/28 04:35:00;;;;;;;3.13;2.90;;;;;;;21.53;62.14;99304.88;6978263;28;20213;-79
2022/06/28 04:38:21;;;;;;;4.17;2.70;;;;;;;21.66;62.46;99321.72;6976787;28;20675;-80
2022/06/28 04:41:43;;;;;;;3.10;2.90;;;;;;;21.61;63.00;99318.13;6981345;28;20714;-79
2022/06/28 04:45:07;;;;;;;2.90;2.70;;;;;;;21.98;62.68;99325.25;6999032;28;20226;-81
2022/06/28 04:48:29;;;;;;;4.83;3.00;;;;;;;21.89;62.52;99285.66;6978966;28;20623;-80
2022/06/28 04:51:50;;;;;;;4.27;3.87;;;;;;;22.32;62.25;99333.94;6978494;28;20439;-81
2022/06/28 04:55:12;;;;;;;4.57;3.83;;;;;;;22.41;61.73;99330.41;6976287;28;20206;-81
2022/06/28 04:58:34;;;;;;;4.03;3.73;;;;;;;22.61;61.54;99336.00;6975851;28;20652;-81
2022/06/28 05:01:57;;;;;;;4.30;2.80;;;;;;;22.59;60.49;99315.41;6957046;28;20235;-81
2022/06/28 05:05:18;;;;;;;3.57;3.27;;;;;;;22.49;60.90;99334.59;6952292;28;20238;-81
2022/06/28 05:08:40;;;;;;;5.73;5.13;;;;;;;22.07;63.21;99331.06;6969137;28;20207;-80
2022/06/28 05:12:01;;;;;;;7.63;6.13;;;;;;;22.11;63.38;99313.78;6953864;28;20254;-80
2022/06/28 05:15:23;;;;;;;19.10;6.43;;;;;;;22.12;62.76;99304.44;6975113;28;20260;-80
2022/06/28 05:18:46;;;;;;;7.47;6.63;;;;;;;21.87;63.71;99308.97;6961929;28;20287;-81
2022/06/28 05:22:09;;;;;;;13.93;7.23;;;;;;;22.24;63.14;99307.00;6976420;28;20309;-81
2022/06/28 05:25:30;;;;;;;8.33;6.10;;;;;;;21.70;63.94;99295.44;6976961;28;20230;-81
2022/06/28 05:28:52;;;;;;;7.73;5.77;;;;;;;22.25;63.32;99300.41;6967100;28;20203;-81
2022/06/28 05:32:13;;;;;;;6.70;6.03;;;;;;;21.82;64.15;99312.53;6947714;28;20231;-81
2022/06/28 05:35:36;;;;;;;7.37;5.87;;;;;;;21.91;64.82;99313.69;6966358;28;20199;-80
2022/06/28 05:38:58;;;;;;;4.77;4.20;;;;;;;22.06;63.61;99296.47;6974569;28;20206;-79
2022/06/28 05:42:19;;;;;;;7.20;4.67;;;;;;;22.22;63.34;99292.69;6973946;28;20251;-80
2022/06/28 05:45:41;;;;;;;4.80;4.40;;;;;;;22.76;62.12;99303.06;6975458;28;20791;-80
2022/06/28 05:49:03;;;;;;;7.57;4.97;;;;;;;23.03;60.92;99313.84;6960012;28;20203;-79
2022/06/28 05:52:26;;;;;;;4.90;4.50;;;;;;;23.31;58.79;99286.66;6975873;28;20219;-80
2022/06/28 05:55:47;;;;;;;5.17;4.67;;;;;;;23.23;61.02;99298.22;6976635;28;20210;-82
2022/06/28 05:59:10;;;;;;;6.27;4.90;;;;;;;23.26;60.22;99307.84;6976333;28;20214;-81
2022/06/28 06:02:32;;;;;;;5.60;5.10;;;;;;;23.19;60.60;99310.06;6980466;28;20739;-81
2022/06/28 06:05:53;;;;;;;6.50;5.53;;;;;;;23.22;60.52;99302.06;6983808;28;20223;-81
2022/06/28 06:09:16;;;;;;;8.10;5.53;;;;;;;23.28;61.04;99289.13;6982984;28;20203;-80
2022/06/28 06:12:38;;;;;;;6.23;5.63;;;;;;;23.29;60.27;99302.63;6980099;28;20255;-81
2022/06/28 06:16:00;;;;;;;6.63;6.07;;;;;;;23.10;60.55;99279.47;6958412;28;20211;-81
2022/06/28 06:19:21;;;;;;;7.50;6.80;;;;;;;23.41;60.71;99300.41;6982112;28;20213;-81
2022/06/28 06:22:43;;;;;;;7.33;6.47;;;;;;;23.60;59.99;99308.94;6981710;28;20219;-81
2022/06/28 06:26:06;;;;;;;6.97;6.27;;;;;;;23.10;60.01;99240.97;6977280;28;20324;-82
2022/06/28 06:29:28;;;;;;;7.83;6.43;;;;;;;23.06;59.84;99275.63;6977798;28;20237;-81
2022/06/28 06:32:49;;;;;;;8.10;7.30;;;;;;;23.50;60.28;99309.78;6979314;28;20232;-82
2022/06/28 06:36:11;;;;;;;7.40;6.70;;;;;;;23.66;59.00;99286.63;6981439;28;20203;-82
2022/06/28 06:39:32;;;;;;;7.43;6.73;;;;;;;23.40;59.51;99282.25;6965097;28;20210;-80
2022/06/28 06:42:55;;;;;;;9.47;6.63;;;;;;;23.56;58.82;99313.34;6965932;28;20799;-81
2022/06/28 06:46:17;;;;;;;7.13;6.53;;;;;;;23.60;58.48;99318.00;6990893;28;20227;-81
2022/06/28 06:49:39;;;;;;;7.20;6.60;;;;;;;23.14;59.02;99286.06;6980332;28;20207;-81
2022/06/28 06:53:02;;;;;;;7.47;6.87;;;;;;;22.92;58.68;99303.94;6982959;28;20215;-81
2022/06/28 06:56:23;;;;;;;7.40;6.80;;;;;;;23.30;58.80;99300.72;6983263;28;20218;-81
2022/06/28 06:59:46;;;;;;;7.23;6.53;;;;;;;23.40;57.51;99267.66;6982251;28;20291;-81
2022/06/28 07:03:08;;;;;;;7.00;6.40;;;;;;;23.69;58.35;99283.31;6982534;28;20583;-81
2022/06/28 07:06:30;;;;;;;6.83;6.23;;;;;;;23.47;57.31;99215.91;6989663;28;20227;-81
2022/06/28 07:09:51;;;;;;;6.90;6.33;;;;;;;23.83;57.43;99247.78;6983312;28;20742;-81
2022/06/28 07:13:13;;;;;;;9.33;7.10;;;;;;;23.76;57.26;99228.78;6974997;28;20305;-81
2022/06/28 07:16:36;;;;;;;7.60;6.77;;;;;;;23.69;57.36;99186.13;6985618;28;20199;-82
2022/06/28 07:19:58;;;;;;;7.47;6.87;;;;;;;23.97;55.42;99213.03;6982376;28;20210;-82
2022/06/28 07:23:19;;;;;;;7.27;6.60;;;;;;;23.75;56.75;99193.25;6979610;28;20222;-79
2022/06/28 07:26:41;;;;;;;7.77;7.07;;;;;;;23.87;56.32;99193.75;6979134;28;20233;-80
2022/06/28 07:30:03;;;;;;;11.07;7.20;;;;;;;23.46;57.30;99184.81;6978462;28;20198;-79
2022/06/28 07:33:26;;;;;;;7.73;6.93;;;;;;;24.06;56.46;99187.38;6978614;28;20224;-79
2022/06/28 07:36:47;;;;;;;7.27;6.67;;;;;;;23.97;57.40;99200.09;6978831;28;20205;-79
2022/06/28 07:40:10;;;;;;;7.40;6.67;;;;;;;23.81;57.16;99226.00;6978112;28;20256;-81
2022/06/28 07:43:31;;;;;;;8.10;6.43;;;;;;;24.13;56.66;99198.91;6978358;28;20243;-80
2022/06/28 07:46:53;;;;;;;6.47;5.40;;;;;;;24.26;56.95;99238.81;6978251;28;20801;-80
2022/06/28 07:53:56;;;;;;;6.00;5.40;;;;;;;23.58;56.97;99214.78;6977971;28;20225;-80
2022/06/28 07:57:17;;;;;;;5.50;5.03;;;;;;;24.69;56.62;99210.47;6977504;28;20297;-80
2022/06/28 08:00:39;;;;;;;5.03;4.63;;;;;;;25.10;54.39;99220.91;6977723;28;20295;-80
2022/06/28 08:04:00;;;;;;;5.57;5.10;;;;;;;24.77;53.81;99242.97;6974517;28;20229;-79
2022/06/28 08:07:24;;;;;;;5.23;4.83;;;;;;;25.01;53.17;99232.88;6977938;28;20266;-80
2022/06/28 08:10:45;;;;;;;4.30;3.90;;;;;;;25.19;53.59;99223.88;6977710;28;20215;-79
2022/06/28 08:14:11;;;;;;;6.10;4.50;;;;;;;24.61;53.20;99205.56;6977454;28;20232;-80
2022/06/28 08:17:33;;;;;;;6.73;5.30;;;;;;;25.00;53.34;99209.94;6977892;28;20249;-80
2022/06/28 08:20:54;;;;;;;5.07;4.67;;;;;;;24.79;53.02;99224.19;6978274;28;20256;-80
2022/06/28 08:24:18;;;;;;;5.83;4.40;;;;;;;26.06;49.85;99207.78;6977898;28;20222;-79
2022/06/28 08:27:40;;;;;;;5.10;4.60;;;;;;;26.89;47.78;99191.44;6978419;28;20472;-82
2022/06/28 08:31:01;;;;;;;4.93;3.83;;;;;;;27.47;46.82;99201.78;6979809;28;20213;-81
2022/06/28 08:34:23;;;;;;;5.50;3.77;;;;;;;25.54;50.04;99216.09;6978169;28;20587;-78
2022/06/28 08:37:44;;;;;;;3.97;3.67;;;;;;;26.77;48.71;99194.66;6978461;28;20256;-79
2022/06/28 08:41:08;;;;;;;5.13;4.03;;;;;;;27.10;46.99;99188.03;6978754;28;20695;-81
2022/06/28 08:44:32;;;;;;;3.67;3.47;;;;;;;27.60;46.03;99178.81;6977908;28;20264;-79
2022/06/28 08:47:55;;;;;;;5.27;3.40;;;;;;;27.40;47.00;99195.00;6976444;28;20628;-80
2022/06/28 08:51:18;;;;;;;3.70;3.40;;;;;;;27.56;46.91;99199.13;6977643;28;20193;-80
2022/06/28 08:54:40;;;;;;;3.60;3.30;;;;;;;27.14;46.48;99168.84;6978232;28;20213;-81
2022/06/28 08:58:07;;;;;;;3.17;2.87;;;;;;;26.87;47.73;99188.97;6968978;28;20601;-78
2022/06/28 09:01:29;;;;;;;3.53;3.30;;;;;;;25.93;49.81;99169.00;6975520;28;20251;-80
2022/06/28 09:04:51;;;;;;;3.97;3.67;;;;;;;26.50;49.17;99180.66;6976648;28;20204;-79
2022/06/28 09:08:13;;;;;;;3.20;3.00;;;;;;;27.77;46.51;99183.78;6975295;28;20224;-78
2022/06/28 09:11:38;;;;;;;3.27;3.03;;;;;;;27.49;43.85;99180.13;6968249;28;20679;-80
2022/06/28 09:15:04;;;;;;;2.87;2.67;;;;;;;27.85;45.59;99164.47;6948817;28;20210;-79
2022/06/28 09:18:29;;;;;;;2.80;2.60;;;;;;;28.19;42.10;99159.31;6950295;28;20229;-80
2022/06/28 09:21:50;;;;;;;2.87;2.67;;;;;;;27.97;43.00;99156.50;6980121;28;20245;-80
2022/06/28 09:25:14;;;;;;;2.93;2.57;;;;;;;28.15;43.22;99144.44;6985327;28;20225;-81
2022/06/28 09:28:41;;;;;;;2.73;2.53;;;;;;;28.21;42.33;99145.13;6983918;28;20233;-80
2022/06/28 09:32:04;;;;;;;2.60;2.40;;;;;;;28.92;42.21;99162.63;6984736;28;20305;-80
2022/06/28 09:35:26;;;;;;;2.93;2.30;;;;;;;29.47;39.60;99166.75;6987244;28;20206;-80
2022/06/28 09:38:48;;;;;;;2.40;2.30;;;;;;;27.52;41.67;99168.44;6989428;28;20217;-80
2022/06/28 09:42:12;;;;;;;4.13;2.57;;;;;;;26.55;44.53;99172.28;6984778;28;20222;-80
2022/06/28 09:45:34;;;;;;;2.60;2.47;;;;;;;26.42;44.85;99167.50;6980650;28;20341;-80
2022/06/28 09:48:58;;;;;;;2.70;2.50;;;;;;;27.83;43.30;99163.16;6978986;28;20706;-79
2022/06/28 09:52:24;;;;;;;2.70;2.23;;;;;;;28.60;42.30;99165.63;6980918;28;20245;-81
2022/06/28 09:55:46;;;;;;;3.77;2.40;;;;;;;28.32;42.22;99152.91;6980740;28;20294;-80
2022/06/28 09:59:08;;;;;;;4.30;2.47;;;;;;;27.35;42.91;99151.59;6980841;28;20365;-80
2022/06/28 10:02:29;;;;;;;2.50;2.40;;;;;;;28.36;42.29;99176.13;6981293;28;20258;-80
2022/06/28 10:05:54;;;;;;;2.40;2.30;;;;;;;27.88;42.12;99161.09;6981550;28;20225;-81
2022/06/28 10:09:18;;;;;;;2.77;2.57;;;;;;;26.33;45.51;99179.53;6981726;28;20213;-80
2022/06/28 10:16:24;;;;;;;2.87;2.40;;;;;;;26.53;45.38;99146.03;6980766;28;20197;-81
2022/06/28 10:19:46;;;;;;;3.33;2.47;;;;;;;26.46;45.50;99146.41;6980593;28;20288;-80
2022/06/28 10:23:23;;;;;;;2.53;2.30;;;;;;;27.55;43.22;99139.31;6981476;28;20221;-80
2022/06/28 10:26:46;;;;;;;3.10;2.30;;;;;;;28.27;42.60;99125.31;6981950;28;20229;-78
2022/06/28 10:30:31;;;;;;;2.93;2.27;;;;;;;27.53;42.74;99062.03;6976802;28;20210;-81
2022/06/28 10:33:54;;;;;;;4.13;2.50;;;;;;;27.07;43.50;99119.41;6980125;28;20276;-79
2022/06/28 10:37:20;;;;;;;2.83;2.50;;;;;;;27.39;45.14;99116.63;6980574;28;20198;-80
2022/06/28 10:40:47;;;;;;;2.33;2.23;;;;;;;27.51;43.21;99105.88;6980883;28;20283;-80
2022/06/28 10:44:10;;;;;;;3.93;2.20;;;;;;;27.88;43.17;99100.13;6981327;28;20291;-81
2022/06/28 10:47:36;;;;;;;2.17;2.07;;;;;;;28.45;40.68;99093.84;6981638;28;20258;-84
2022/06/28 10:50:58;;;;;;;2.13;2.03;;;;;;;27.94;41.78;99084.19;6982312;28;20256;-80
2022/06/28 10:54:20;;;;;;;2.23;2.03;;;;;;;28.38;41.17;99068.47;6982192;28;20745;-84
2022/06/28 10:57:45;;;;;;;2.00;1.90;;;;;;;28.32;42.50;99064.16;6979330;28;20320;-80
2022/06/28 11:01:06;;;;;;;3.00;1.80;;;;;;;29.41;39.35;99065.22;6957853;28;20223;-81
2022/06/28 11:04:30;;;;;;;2.50;2.00;;;;;;;29.87;38.30;99045.25;6953683;28;20220;-80
2022/06/28 11:07:57;;;;;;;1.40;1.30;;;;;;;28.09;38.95;99064.44;6969938;28;20391;-80
2022/06/28 11:11:19;;;;;;;2.13;1.80;;;;;;;27.15;41.05;98991.38;6982146;28;20206;-81
2022/06/28 11:14:50;;;;;;;4.23;1.67;;;;;;;27.82;41.27;99031.22;6976451;28;20203;-81
2022/06/28 11:18:15;;;;;;;1.60;1.50;;;;;;;27.51;41.50;99036.59;6979560;28;20233;-82
2022/06/28 11:21:36;;;;;;;1.90;1.80;;;;;;;28.86;40.08;99029.78;6980266;28;20790;-81
2022/06/28 11:25:00;;;;;;;4.70;1.80;;;;;;;29.36;37.38;99006.22;6980308;28;20206;-81
2022/06/28 11:28:22;;;;;;;3.90;1.80;;;;;;;28.59;38.81;99010.53;6981006;28;20572;-81
2022/06/28 11:31:45;;;;;;;1.37;1.27;;;;;;;28.56;38.98;99025.03;6980487;28;20257;-81
2022/06/28 11:35:08;;;;;;;1.70;1.60;;;;;;;28.30;38.82;98999.84;6979994;28;20207;-81
2022/06/28 11:38:30;;;;;;;1.93;1.60;;;;;;;28.54;39.67;99022.56;6978098;28;20722;-80
2022/06/28 11:41:53;;;;;;;2.50;1.60;;;;;;;28.64;39.47;99008.44;6973640;28;20259;-81
2022/06/28 11:45:15;;;;;;;4.10;1.40;;;;;;;29.56;36.82;98995.34;6950727;28;20207;-81
2022/06/28 11:48:38;;;;;;;1.50;1.40;;;;;;;29.09;38.92;99035.03;6956456;28;20306;-81
2022/06/28 11:52:00;;;;;;;2.23;1.50;;;;;;;29.15;38.59;99019.88;6977900;28;20931;-81
2022/06/28 11:55:38;;;;;;;1.67;1.47;;;;;;;28.83;36.71;98981.28;6978188;28;20700;-81
2022/06/28 11:58:59;;;;;;;2.03;1.57;;;;;;;28.46;38.34;99003.09;6972122;28;20209;-82
2022/06/28 12:02:40;;;;;;;1.60;1.50;;;;;;;28.79;38.62;99012.78;6977312;28;20610;-82
2022/06/28 12:06:04;;;;;;;2.47;1.77;;;;;;;29.02;39.97;99017.19;6978065;28;20207;-82
2022/06/28 12:09:25;;;;;;;2.57;1.60;;;;;;;29.55;37.51;99006.78;6977041;28;20253;-81
2022/06/28 12:12:47;;;;;;;1.90;1.57;;;;;;;30.32;35.29;99011.25;6977783;28;20316;-82
2022/06/28 12:16:13;;;;;;;4.00;1.40;;;;;;;30.38;34.71;99012.72;6978250;28;20265;-82
2022/06/28 12:19:38;;;;;;;3.37;1.27;;;;;;;29.35;36.71;99012.88;6978170;28;20223;-81
2022/06/28 12:23:02;;;;;;;1.97;1.30;;;;;;;29.50;35.07;99010.50;6985866;28;20230;-81
2022/06/28 12:26:39;;;;;;;1.30;1.07;;;;;;;28.48;36.67;99014.72;6979856;28;20214;-81
2022/06/28 12:30:01;;;;;;;2.27;1.33;;;;;;;29.21;35.29;99006.63;6979338;28;20665;-82
2022/06/28 12:33:22;;;;;;;1.43;1.27;;;;;;;29.18;36.37;99016.44;6979137;28;20275;-82
2022/06/28 12:36:44;;;;;;;1.27;1.17;;;;;;;29.82;35.62;99010.09;6979309;28;20253;-82
2022/06/28 12:40:09;;;;;;;1.80;1.50;;;;;;;29.91;34.04;99015.66;6980121;28;20210;-79
2022/06/28 12:43:30;;;;;;;2.60;1.40;;;;;;;28.91;36.05;99008.25;6979804;28;20231;-81
2022/06/28 12:46:52;;;;;;;2.17;1.43;;;;;;;28.17;38.05;98991.59;6974236;28;20261;-80
2022/06/28 12:50:16;;;;;;;1.50;1.40;;;;;;;28.58;38.21;98947.84;6976230;28;20222;-81
2022/06/28 12:53:37;;;;;;;1.33;1.23;;;;;;;29.09;34.73;98959.22;6980242;28;20307;-81
2022/06/28 12:57:01;;;;;;;3.83;1.40;;;;;;;28.41;37.79;98983.81;6979380;28;20206;-81
2022/06/28 13:00:22;;;;;;;1.50;1.40;;;;;;;27.83;39.64;98988.56;6978257;28;20252;-80
2022/06/28 13:03:44;;;;;;;2.73;1.60;;;;;;;28.80;37.69;98981.94;6979302;28;20222;-81
2022/06/28 13:07:05;;;;;;;4.43;1.30;;;;;;;29.09;35.65;98976.72;6980255;28;20559;-80
2022/06/28 13:10:27;;;;;;;1.87;1.63;;;;;;;29.74;35.12;98963.66;6978965;28;20273;-80
2022/06/28 13:13:50;;;;;;;1.97;1.53;;;;;;;30.00;34.97;98966.41;6979639;28;20594;-81
2022/06/28 13:17:12;;;;;;;2.03;1.50;;;;;;;29.36;34.82;98948.66;6971261;28;20349;-80
2022/06/28 13:20:33;;;;;;;4.07;1.60;;;;;;;29.49;36.66;98946.91;6951948;28;20226;-80
2022/06/28 13:23:55;;;;;;;1.80;1.47;;;;;;;28.02;38.21;98939.31;6952984;28;20226;-80
2022/06/28 13:27:17;;;;;;;3.20;1.27;;;;;;;29.99;36.23;98932.25;6955396;28;20568;-85
2022/06/28 13:30:41;;;;;;;2.93;1.43;;;;;;;30.91;34.12;98926.00;6955585;28;20207;-81
2022/06/28 13:34:02;;;;;;;4.47;1.30;;;;;;;30.46;35.13;98899.78;6950963;28;20284;-81
2022/06/28 13:37:27;;;;;;;1.60;1.50;;;;;;;28.59;36.62;98913.41;6951842;28;20231;-81
2022/06/28 13:40:48;;;;;;;3.10;1.70;;;;;;;29.60;34.83;98907.38;6950535;28;20204;-82
2022/06/28 13:44:12;;;;;;;1.30;1.20;;;;;;;29.34;34.58;98894.56;6951302;28;20243;-81
2022/06/28 13:47:35;;;;;;;1.50;1.40;;;;;;;30.86;34.30;98895.56;6948939;28;20229;-81
2022/06/28 13:50:57;;;;;;;2.90;1.60;;;;;;;30.78;34.16;98893.66;6950872;28;20193;-82
2022/06/28 13:54:18;;;;;;;1.90;1.20;;;;;;;31.06;34.41;98905.94;6951193;28;20224;-80
2022/06/28 13:57:41;;;;;;;2.83;1.60;;;;;;;30.53;33.24;98886.16;6950292;28;20290;-80
2022/06/28 14:01:03;;;;;;;1.47;1.30;;;;;;;30.47;33.22;98899.44;6950726;28;20299;-81
2022/06/28 14:04:25;;;;;;;1.23;0.90;;;;;;;28.52;36.12;98857.56;6967889;28;20241;-80
2022/06/28 14:07:47;;;;;;;1.77;1.40;;;;;;;30.17;34.05;98906.06;6977700;28;20253;-80
2022/06/28 14:11:09;;;;;;;1.23;1.10;;;;;;;30.81;33.09;98902.16;6975274;28;20211;-81
2022/06/28 14:14:30;;;;;;;1.97;1.20;;;;;;;31.20;31.75;98870.34;6978148;28;20305;-81
2022/06/28 14:17:52;;;;;;;2.77;1.47;;;;;;;31.68;32.01;98890.97;6977932;28;20212;-82
2022/06/28 14:21:15;;;;;;;1.20;1.10;;;;;;;29.31;34.27;98868.25;6979235;28;20623;-80
2022/06/28 14:24:36;;;;;;;2.87;1.30;;;;;;;30.27;32.27;98880.69;6982169;28;20234;-81
2022/06/28 14:27:58;;;;;;;1.40;1.30;;;;;;;29.88;32.75;98864.19;6984167;28;20234;-81
2022/06/28 14:31:19;;;;;;;1.87;1.30;;;;;;;30.00;33.72;98867.13;6983783;28;20211;-80
2022/06/28 14:34:41;;;;;;;1.50;1.40;;;;;;;30.63;32.98;98841.25;6984797;28;20235;-81
2022/06/28 14:38:04;;;;;;;1.20;1.10;;;;;;;31.17;32.54;98854.25;6992436;28;20204;-82
2022/06/28 14:41:26;;;;;;;1.70;1.17;;;;;;;30.49;31.03;98854.59;6993945;28;20236;-81
2022/06/28 14:44:47;;;;;;;1.43;1.33;;;;;;;30.22;32.55;98860.56;6974974;28;20247;-80
2022/06/28 14:48:09;;;;;;;1.77;1.60;;;;;;;31.06;32.32;98850.22;6987964;28;20223;-80
2022/06/28 14:51:31;;;;;;;2.47;1.50;;;;;;;31.26;32.36;98838.34;6978323;28;20208;-82
2022/06/28 14:54:54;;;;;;;5.50;1.90;;;;;;;31.13;32.85;98842.16;6965548;28;20728;-81
2022/06/28 14:58:16;;;;;;;1.33;1.20;;;;;;;31.26;31.73;98836.34;6955367;28;20201;-80
2022/06/28 15:01:37;;;;;;;1.50;1.40;;;;;;;30.80;33.39;98818.94;6954203;28;20394;-80
2022/06/28 15:04:59;;;;;;;2.70;1.50;;;;;;;30.24;34.98;98814.56;6953843;28;20246;-80
2022/06/28 15:08:20;;;;;;;1.60;1.50;;;;;;;31.00;32.80;98809.78;6953084;28;20247;-81
2022/06/28 15:11:43;;;;;;;3.17;1.60;;;;;;;30.74;32.66;98814.72;6953901;28;20240;-81
2022/06/28 15:15:06;;;;;;;1.60;1.50;;;;;;;31.12;32.53;98809.88;6954278;28;20231;-81
2022/06/28 15:18:27;;;;;;;2.27;1.60;;;;;;;30.47;33.75;98804.00;6953638;28;20240;-81
2022/06/28 15:32:47;;;;;;;1.63;1.50;;;;;;;29.74;34.95;98804.38;6981301;28;20219;-81
2022/06/28 15:36:09;;;;;;;1.40;1.30;;;;;;;30.50;34.42;98797.78;6980128;28;20212;-82
2022/06/28 15:39:32;;;;;;;1.53;1.40;;;;;;;30.72;33.86;98755.78;6979641;28;20229;-82
2022/06/28 15:42:53;;;;;;;1.83;1.73;;;;;;;29.72;35.16;98807.47;6980668;28;20268;-81
2022/06/28 15:46:16;;;;;;;1.70;1.60;;;;;;;30.41;34.97;98808.13;6981765;28;20346;-82
2022/06/28 15:49:38;;;;;;;2.03;1.63;;;;;;;29.98;36.19;98788.78;6979377;28;20568;-83
2022/06/28 15:53:00;;;;;;;9.83;6.67;;;;;;;29.42;36.05;98802.88;6981036;28;20234;-83
2022/06/28 15:56:21;;;;;;;1.60;1.50;;;;;;;29.88;36.30;98786.34;6980902;28;20850;-83
2022/06/28 15:59:43;;;;;;;1.50;1.40;;;;;;;29.85;35.55;98792.56;6980594;28;20566;-80
2022/06/28 16:03:07;;;;;;;1.80;1.70;;;;;;;29.90;34.81;98795.16;6980357;28;20242;-83
2022/06/28 16:06:28;;;;;;;2.00;1.90;;;;;;;30.20;35.45;98799.69;6976488;28;20218;-83
2022/06/28 16:09:50;;;;;;;2.60;1.80;;;;;;;30.41;35.28;98783.91;6966424;28;20700;-83
2022/06/28 16:13:12;;;;;;;2.00;1.77;;;;;;;30.61;34.70;98791.47;6979192;28;20229;-84
2022/06/28 16:16:33;;;;;;;2.70;1.70;;;;;;;30.46;34.59;98785.66;6980451;28;20794;-84
2022/06/28 16:19:56;;;;;;;1.90;1.80;;;;;;;30.36;35.63;98783.28;6980291;28;20200;-82